Higham Ferrers, United Kingdom
Current Conditions -  °F | °C
As of 9:20 AM on Friday 31 Oct 2014 (Local Time) from EGTC Reporting Station
Haze Haze  
Wind Chill: 16°   Ceiling: Unl
Heat Index: 16°   Visibility: 3mi
Dew Point: 16°   Wind: 13mph
Humidity: 100%   Direction: 180°S
Pressure: 30.03"   Gusts: NA
Location:  52.31°N, 0.59°W
Report Text: EGTC 310920Z 18011KT 5000 BR NSC 16/16 Q1017
Loading
Personal Weather Stations






























Interactive Weather Map
Tropical Storm Tracking
New forecast layout! Learn more

10-Day Weather Forecast

Advertisements
Track Severe Weather on mobile